sensor_id;sensor_type;location;lat;lon;timestamp;pressure;altitude;pressure_sealevel;temperature;humidity
59240;BME280;45010;53.640;10.578;2023-12-29T00:00:10;99663.84;;;21.72;34.19
59240;BME280;45010;53.640;10.578;2023-12-29T00:03:10;99664.41;;;21.74;34.15
59240;BME280;45010;53.640;10.578;2023-12-29T00:06:11;99669.69;;;21.74;34.54
59240;BME280;45010;53.640;10.578;2023-12-29T00:09:11;99635.69;;;21.59;34.40
59240;BME280;45010;53.640;10.578;2023-12-29T00:12:12;99655.06;;;21.71;34.38
59240;BME280;45010;53.640;10.578;2023-12-29T00:15:13;99650.56;;;21.72;34.08
59240;BME280;45010;53.640;10.578;2023-12-29T00:18:16;99669.16;;;21.72;34.57
59240;BME280;45010;53.640;10.578;2023-12-29T00:21:17;99670.19;;;21.71;33.98
59240;BME280;45010;53.640;10.578;2023-12-29T00:24:17;99678.16;;;21.71;34.22
59240;BME280;45010;53.640;10.578;2023-12-29T00:27:18;99695.13;;;21.70;34.39
59240;BME280;45010;53.640;10.578;2023-12-29T00:30:18;99661.63;;;21.69;34.40
59240;BME280;45010;53.640;10.578;2023-12-29T00:33:19;99647.78;;;21.67;34.40
59240;BME280;45010;53.640;10.578;2023-12-29T00:36:20;99644.25;;;21.61;34.24
59240;BME280;45010;53.640;10.578;2023-12-29T00:39:21;99644.56;;;21.64;34.42
59240;BME280;45010;53.640;10.578;2023-12-29T00:42:28;99655.19;;;21.64;34.43
59240;BME280;45010;53.640;10.578;2023-12-29T00:45:28;99641.94;;;21.64;34.27
59240;BME280;45010;53.640;10.578;2023-12-29T00:48:33;99631.31;;;21.64;34.13
59240;BME280;45010;53.640;10.578;2023-12-29T00:51:33;99628.66;;;21.64;34.42
59240;BME280;45010;53.640;10.578;2023-12-29T00:54:40;99626.22;;;21.63;34.47
59240;BME280;45010;53.640;10.578;2023-12-29T00:57:40;99619.31;;;21.62;34.48
59240;BME280;45010;53.640;10.578;2023-12-29T01:00:40;99617.72;;;21.61;34.48
59240;BME280;45010;53.640;10.578;2023-12-29T01:03:41;99616.91;;;21.60;34.43
59240;BME280;45010;53.640;10.578;2023-12-29T01:06:41;99607.09;;;21.61;34.07
59240;BME280;45010;53.640;10.578;2023-12-29T01:09:41;99620.59;;;21.59;34.66
59240;BME280;45010;53.640;10.578;2023-12-29T01:12:42;99617.94;;;21.59;34.60
59240;BME280;45010;53.640;10.578;2023-12-29T01:15:42;99615.28;;;21.59;34.47
59240;BME280;45010;53.640;10.578;2023-12-29T01:18:44;99607.34;;;21.59;34.04
59240;BME280;45010;53.640;10.578;2023-12-29T01:21:45;99607.56;;;21.58;34.74
59240;BME280;45010;53.640;10.578;2023-12-29T01:24:45;99595.59;;;21.55;34.31
59240;BME280;45010;53.640;10.578;2023-12-29T01:27:45;99592.47;;;21.58;34.47
59240;BME280;45010;53.640;10.578;2023-12-29T01:30:46;99593.47;;;21.57;34.41
59240;BME280;45010;53.640;10.578;2023-12-29T01:33:46;99596.13;;;21.57;34.25
59240;BME280;45010;53.640;10.578;2023-12-29T01:36:46;99589.22;;;21.56;34.12
59240;BME280;45010;53.640;10.578;2023-12-29T01:39:47;99592.94;;;21.55;34.52
59240;BME280;45010;53.640;10.578;2023-12-29T01:42:47;99587.63;;;21.55;34.31
59240;BME280;45010;53.640;10.578;2023-12-29T01:45:47;99591.31;;;21.54;34.24
59240;BME280;45010;53.640;10.578;2023-12-29T01:48:48;99603.53;;;21.55;34.18
59240;BME280;45010;53.640;10.578;2023-12-29T01:51:51;99589.72;;;21.53;34.55
59240;BME280;45010;53.640;10.578;2023-12-29T01:54:53;99589.72;;;21.53;34.16
59240;BME280;45010;53.640;10.578;2023-12-29T01:57:54;99598.72;;;21.52;34.52
59240;BME280;45010;53.640;10.578;2023-12-29T02:00:55;99588.13;;;21.52;34.49
59240;BME280;45010;53.640;10.578;2023-12-29T02:03:56;99571.50;;;21.45;34.36
59240;BME280;45010;53.640;10.578;2023-12-29T02:06:57;99572.19;;;21.52;34.27
59240;BME280;45010;53.640;10.578;2023-12-29T02:10:00;99561.50;;;21.47;34.40
59240;BME280;45010;53.640;10.578;2023-12-29T02:13:01;99556.75;;;21.49;34.38
59240;BME280;45010;53.640;10.578;2023-12-29T02:16:07;99556.75;;;21.49;34.43
59240;BME280;45010;53.640;10.578;2023-12-29T02:22:35;99545.34;;;21.48;34.59
59240;BME280;45010;53.640;10.578;2023-12-29T02:25:35;99543.47;;;21.49;34.55
59240;BME280;45010;53.640;10.578;2023-12-29T02:28:39;99549.03;;;21.47;34.55
59240;BME280;45010;53.640;10.578;2023-12-29T02:31:45;99549.84;;;21.48;34.70
59240;BME280;45010;53.640;10.578;2023-12-29T02:34:50;99543.97;;;21.46;34.57
59240;BME280;45010;53.640;10.578;2023-12-29T02:37:52;99532.31;;;21.47;34.58
59240;BME280;45010;53.640;10.578;2023-12-29T02:40:55;99533.38;;;21.46;34.39
59240;BME280;45010;53.640;10.578;2023-12-29T02:43:55;99536.03;;;21.46;34.31
59240;BME280;45010;53.640;10.578;2023-12-29T02:46:55;99521.94;;;21.45;34.50
59240;BME280;45010;53.640;10.578;2023-12-29T02:49:56;99511.56;;;21.44;34.61
59240;BME280;45010;53.640;10.578;2023-12-29T02:52:56;99516.88;;;21.44;34.40
59240;BME280;45010;53.640;10.578;2023-12-29T02:55:56;99514.22;;;21.44;34.51
59240;BME280;45010;53.640;10.578;2023-12-29T02:58:57;99511.56;;;21.44;34.29
59240;BME280;45010;53.640;10.578;2023-12-29T03:01:57;99510.78;;;21.43;34.54
59240;BME280;45010;53.640;10.578;2023-12-29T03:04:57;99483.19;;;21.27;34.66
59240;BME280;45010;53.640;10.578;2023-12-29T03:07:58;99499.34;;;21.43;34.61
59240;BME280;45010;53.640;10.578;2023-12-29T03:10:58;99479.59;;;21.33;34.27
59240;BME280;45010;53.640;10.578;2023-12-29T03:13:59;99487.13;;;21.42;34.48
59240;BME280;45010;53.640;10.578;2023-12-29T03:16:59;99492.44;;;21.42;34.36
59240;BME280;45010;53.640;10.578;2023-12-29T03:20:00;99456.69;;;21.27;34.38
59240;BME280;45010;53.640;10.578;2023-12-29T03:23:01;99477.56;;;21.41;34.50
59240;BME280;45010;53.640;10.578;2023-12-29T03:26:01;99463.69;;;21.33;34.30
59240;BME280;45010;53.640;10.578;2023-12-29T03:29:01;99483.94;;;21.40;34.61
59240;BME280;45010;53.640;10.578;2023-12-29T03:32:02;99473.31;;;21.40;34.32
59240;BME280;45010;53.640;10.578;2023-12-29T03:35:03;99452.09;;;21.40;34.29
59240;BME280;45010;53.640;10.578;2023-12-29T03:38:04;99458.44;;;21.39;34.32
59240;BME280;45010;53.640;10.578;2023-12-29T03:41:04;99458.38;;;21.33;34.58
59240;BME280;45010;53.640;10.578;2023-12-29T03:44:04;99458.69;;;21.37;34.64
59240;BME280;45010;53.640;10.578;2023-12-29T03:47:06;99444.84;;;21.35;34.42
59240;BME280;45010;53.640;10.578;2023-12-29T03:50:06;99452.56;;;21.36;34.45
59240;BME280;45010;53.640;10.578;2023-12-29T03:53:07;99441.97;;;21.36;34.57
59240;BME280;45010;53.640;10.578;2023-12-29T03:56:08;99439.22;;;21.31;34.52
59240;BME280;45010;53.640;10.578;2023-12-29T03:59:09;99443.78;;;21.36;34.64
59240;BME280;45010;53.640;10.578;2023-12-29T04:02:09;99446.72;;;21.34;34.47
59240;BME280;45010;53.640;10.578;2023-12-29T04:05:10;99445.66;;;21.35;34.55
59240;BME280;45010;53.640;10.578;2023-12-29T04:08:10;99459.16;;;21.34;34.48
59240;BME280;45010;53.640;10.578;2023-12-29T04:11:12;99453.06;;;21.33;34.33
59240;BME280;45010;53.640;10.578;2023-12-29T04:14:12;99459.38;;;21.32;34.31
59240;BME280;45010;53.640;10.578;2023-12-29T04:17:13;99457.56;;;21.33;34.64
59240;BME280;45010;53.640;10.578;2023-12-29T04:20:14;99451.44;;;21.32;34.16
59240;BME280;45010;53.640;10.578;2023-12-29T04:23:15;99460.94;;;21.28;34.43
59240;BME280;45010;53.640;10.578;2023-12-29T04:26:15;99482.25;;;21.33;34.32
59240;BME280;45010;53.640;10.578;2023-12-29T04:29:15;99497.34;;;21.33;34.48
59240;BME280;45010;53.640;10.578;2023-12-29T04:32:16;99492.03;;;21.33;34.41
59240;BME280;45010;53.640;10.578;2023-12-29T04:35:16;99511.41;;;21.33;34.38
59240;BME280;45010;53.640;10.578;2023-12-29T04:38:16;99519.28;;;21.28;34.45
59240;BME280;45010;53.640;10.578;2023-12-29T04:41:19;99524.09;;;21.31;34.21
59240;BME280;45010;53.640;10.578;2023-12-29T04:44:19;99542.41;;;21.33;34.26
59240;BME280;45010;53.640;10.578;2023-12-29T04:47:19;99546.91;;;21.32;34.63
59240;BME280;45010;53.640;10.578;2023-12-29T04:50:20;99469.19;;;20.86;34.43
59240;BME280;45010;53.640;10.578;2023-12-29T04:53:20;99517.19;;;21.30;34.44
59240;BME280;45010;53.640;10.578;2023-12-29T04:56:20;99475.25;;;21.27;34.58
59240;BME280;45010;53.640;10.578;2023-12-29T04:59:21;99473.94;;;21.30;34.64
59240;BME280;45010;53.640;10.578;2023-12-29T05:02:21;99489.84;;;21.30;34.51
59240;BME280;45010;53.640;10.578;2023-12-29T05:05:21;99433.22;;;20.90;34.75
59240;BME280;45010;53.640;10.578;2023-12-29T05:08:22;99505.75;;;21.30;34.64
59240;BME280;45010;53.640;10.578;2023-12-29T05:11:22;99506.00;;;21.28;34.62
59240;BME280;45010;53.640;10.578;2023-12-29T05:14:23;99487.13;;;21.25;34.62
59240;BME280;45010;53.640;10.578;2023-12-29T05:17:23;99484.53;;;21.30;34.65
59240;BME280;45010;53.640;10.578;2023-12-29T05:20:23;99483.75;;;21.29;34.46
59240;BME280;45010;53.640;10.578;2023-12-29T05:23:24;99489.84;;;21.30;34.74
59240;BME280;45010;53.640;10.578;2023-12-29T05:26:24;99485.25;;;21.25;34.34
59240;BME280;45010;53.640;10.578;2023-12-29T05:29:25;99494.34;;;21.29;34.64
59240;BME280;45010;53.640;10.578;2023-12-29T05:32:25;99486.41;;;21.29;34.52
59240;BME280;45010;53.640;10.578;2023-12-29T05:35:26;99479.22;;;21.30;34.44
59240;BME280;45010;53.640;10.578;2023-12-29T05:38:26;99474.66;;;21.25;34.49
59240;BME280;45010;53.640;10.578;2023-12-29T05:41:26;99466.25;;;21.28;34.51
59240;BME280;45010;53.640;10.578;2023-12-29T05:44:27;99480.06;;;21.30;34.58
59240;BME280;45010;53.640;10.578;2023-12-29T05:47:27;99485.34;;;21.30;34.52
59240;BME280;45010;53.640;10.578;2023-12-29T05:50:28;99485.34;;;21.30;34.79
59240;BME280;45010;53.640;10.578;2023-12-29T05:53:28;99486.16;;;21.31;34.67
59240;BME280;45010;53.640;10.578;2023-12-29T05:56:28;99489.59;;;21.31;34.46
59240;BME280;45010;53.640;10.578;2023-12-29T05:59:28;99493.31;;;21.30;34.75
59240;BME280;45010;53.640;10.578;2023-12-29T06:02:29;99497.56;;;21.31;34.73
59240;BME280;45010;53.640;10.578;2023-12-29T06:05:30;99499.44;;;21.31;34.73
59240;BME280;45010;53.640;10.578;2023-12-29T06:08:30;99513.47;;;21.31;34.65
59240;BME280;45010;53.640;10.578;2023-12-29T06:11:30;99509.00;;;21.32;34.64
59240;BME280;45010;53.640;10.578;2023-12-29T06:14:30;99497.56;;;21.31;34.49
59240;BME280;45010;53.640;10.578;2023-12-29T06:17:31;99493.81;;;21.27;34.69
59240;BME280;45010;53.640;10.578;2023-12-29T06:20:32;99501.25;;;21.30;34.32
59240;BME280;45010;53.640;10.578;2023-12-29T06:23:32;99502.88;;;21.31;34.49
59240;BME280;45010;53.640;10.578;2023-12-29T06:26:33;99512.69;;;21.31;34.58
59240;BME280;45010;53.640;10.578;2023-12-29T06:29:33;99516.94;;;21.32;34.48
59240;BME280;45010;53.640;10.578;2023-12-29T06:32:34;99508.16;;;21.31;34.77
59240;BME280;45010;53.640;10.578;2023-12-29T06:35:34;99507.06;;;21.27;34.89
59240;BME280;45010;53.640;10.578;2023-12-29T06:38:35;99516.72;;;21.33;34.50
59240;BME280;45010;53.640;10.578;2023-12-29T06:41:35;99525.69;;;21.32;34.54
59240;BME280;45010;53.640;10.578;2023-12-29T06:44:36;99523.03;;;21.32;34.29
59240;BME280;45010;53.640;10.578;2023-12-29T06:47:36;99546.13;;;21.32;34.95
59240;BME280;45010;53.640;10.578;2023-12-29T06:50:36;99536.28;;;21.32;34.52
59240;BME280;45010;53.640;10.578;2023-12-29T06:53:38;99524.66;;;21.33;34.75
59240;BME280;45010;53.640;10.578;2023-12-29T06:56:38;99525.69;;;21.32;34.56
59240;BME280;45010;53.640;10.578;2023-12-29T06:59:38;99523.84;;;21.33;34.54
59240;BME280;45010;53.640;10.578;2023-12-29T07:02:39;99528.34;;;21.32;34.50
59240;BME280;45010;53.640;10.578;2023-12-29T07:05:40;99517.66;;;21.27;34.94
59240;BME280;45010;53.640;10.578;2023-12-29T07:08:40;99524.09;;;21.31;34.95
59240;BME280;45010;53.640;10.578;2023-12-29T07:11:40;99538.88;;;21.27;34.94
59240;BME280;45010;53.640;10.578;2023-12-29T07:14:41;99525.69;;;21.32;34.72
59240;BME280;45010;53.640;10.578;2023-12-29T07:17:41;99513.63;;;21.25;35.20
59240;BME280;45010;53.640;10.578;2023-12-29T07:20:42;99514.75;;;21.29;35.48
59240;BME280;45010;53.640;10.578;2023-12-29T07:23:42;99520.38;;;21.32;35.65
59240;BME280;45010;53.640;10.578;2023-12-29T07:26:43;99516.28;;;21.25;36.15
59240;BME280;45010;53.640;10.578;2023-12-29T07:29:43;99516.34;;;21.30;36.28
59240;BME280;45010;53.640;10.578;2023-12-29T07:32:43;99524.41;;;21.35;36.12
59240;BME280;45010;53.640;10.578;2023-12-29T07:35:44;99521.84;;;21.40;36.00
59240;BME280;45010;53.640;10.578;2023-12-29T07:38:44;99529.66;;;21.47;35.96
59240;BME280;45010;53.640;10.578;2023-12-29T07:41:45;99531.81;;;21.50;35.65
59240;BME280;45010;53.640;10.578;2023-12-29T07:44:45;99532.16;;;21.54;35.63
59240;BME280;45010;53.640;10.578;2023-12-29T07:47:45;99517.03;;;21.54;35.81
59240;BME280;45010;53.640;10.578;2023-12-29T07:50:45;99519.59;;;21.66;36.03
59240;BME280;45010;53.640;10.578;2023-12-29T07:53:46;99526.41;;;21.74;35.90
59240;BME280;45010;53.640;10.578;2023-12-29T07:56:46;99523.38;;;21.82;35.79
59240;BME280;45010;53.640;10.578;2023-12-29T07:59:46;99528.50;;;21.89;35.42
59240;BME280;45010;53.640;10.578;2023-12-29T08:02:47;99528.34;;;21.96;35.34
59240;BME280;45010;53.640;10.578;2023-12-29T08:05:47;99532.69;;;22.02;35.07
59240;BME280;45010;53.640;10.578;2023-12-29T08:08:47;99530.66;;;22.09;34.97
59240;BME280;45010;53.640;10.578;2023-12-29T08:11:48;99529.59;;;22.10;35.25
59240;BME280;45010;53.640;10.578;2023-12-29T08:14:48;99533.47;;;22.20;35.17
59240;BME280;45010;53.640;10.578;2023-12-29T08:17:48;99531.88;;;22.19;34.57
59240;BME280;45010;53.640;10.578;2023-12-29T08:20:49;99534.09;;;22.27;34.95
59240;BME280;45010;53.640;10.578;2023-12-29T08:23:49;99545.84;;;22.31;34.39
59240;BME280;45010;53.640;10.578;2023-12-29T08:26:49;99507.97;;;22.19;34.63
59240;BME280;45010;53.640;10.578;2023-12-29T08:29:50;99535.03;;;22.38;34.13
59240;BME280;45010;53.640;10.578;2023-12-29T08:32:50;99528.41;;;22.40;34.53
59240;BME280;45010;53.640;10.578;2023-12-29T08:35:50;99533.25;;;22.43;34.50
59240;BME280;45010;53.640;10.578;2023-12-29T08:38:51;99525.84;;;22.46;34.25
59240;BME280;45010;53.640;10.578;2023-12-29T08:41:53;99529.03;;;22.48;34.12
59240;BME280;45010;53.640;10.578;2023-12-29T08:44:53;99542.91;;;22.50;34.01
59240;BME280;45010;53.640;10.578;2023-12-29T08:47:53;99544.50;;;22.51;33.72
59240;BME280;45010;53.640;10.578;2023-12-29T08:50:54;99540.81;;;22.52;34.03
59240;BME280;45010;53.640;10.578;2023-12-29T08:53:54;99537.09;;;22.53;34.03
59240;BME280;45010;53.640;10.578;2023-12-29T08:56:55;99540.97;;;22.62;34.48
59240;BME280;45010;53.640;10.578;2023-12-29T08:59:55;99545.16;;;22.58;34.27
59240;BME280;45010;53.640;10.578;2023-12-29T09:02:56;99546.75;;;22.59;34.46
59240;BME280;45010;53.640;10.578;2023-12-29T09:05:56;99545.22;;;22.63;34.68
59240;BME280;45010;53.640;10.578;2023-12-29T09:08:57;99547.41;;;22.66;34.59
59240;BME280;45010;53.640;10.578;2023-12-29T09:11:58;99539.47;;;22.71;34.28
59240;BME280;45010;53.640;10.578;2023-12-29T09:14:58;99550.41;;;22.75;34.19
59240;BME280;45010;53.640;10.578;2023-12-29T09:17:58;99565.06;;;22.78;34.03
59240;BME280;45010;53.640;10.578;2023-12-29T09:20:59;99557.13;;;22.83;34.17
59240;BME280;45010;53.640;10.578;2023-12-29T09:23:59;99552.94;;;22.87;33.65
59240;BME280;45010;53.640;10.578;2023-12-29T09:26:59;99542.84;;;22.89;34.03
59240;BME280;45010;53.640;10.578;2023-12-29T09:30:00;99546.63;;;22.93;34.11
59240;BME280;45010;53.640;10.578;2023-12-29T09:33:00;99563.69;;;22.97;34.07
59240;BME280;45010;53.640;10.578;2023-12-29T09:36:00;99552.06;;;23.04;34.00
59240;BME280;45010;53.640;10.578;2023-12-29T09:39:01;99574.44;;;23.08;33.97
59240;BME280;45010;53.640;10.578;2023-12-29T09:42:03;99552.16;;;23.14;33.81
59240;BME280;45010;53.640;10.578;2023-12-29T09:45:07;99573.13;;;23.10;33.93
59240;BME280;45010;53.640;10.578;2023-12-29T09:48:11;99592.94;;;23.20;33.70
59240;BME280;45010;53.640;10.578;2023-12-29T09:51:13;99608.13;;;23.24;33.45
59240;BME280;45010;53.640;10.578;2023-12-29T09:54:14;99589.50;;;23.24;33.54
59240;BME280;45010;53.640;10.578;2023-12-29T09:57:15;99599.66;;;23.28;33.73
59240;BME280;45010;53.640;10.578;2023-12-29T10:00:16;99590.44;;;23.35;33.56
59240;BME280;45010;53.640;10.578;2023-12-29T10:03:17;99568.44;;;23.40;33.17
59240;BME280;45010;53.640;10.578;2023-12-29T10:06:20;99591.84;;;23.43;33.39
59240;BME280;45010;53.640;10.578;2023-12-29T10:09:21;99592.16;;;23.47;33.36
59240;BME280;45010;53.640;10.578;2023-12-29T10:12:24;99579.16;;;23.50;33.24
59240;BME280;45010;53.640;10.578;2023-12-29T10:15:54;99568.25;;;23.52;32.99
59240;BME280;45010;53.640;10.578;2023-12-29T10:22:36;99542.56;;;23.63;32.88
59240;BME280;45010;53.640;10.578;2023-12-29T10:25:39;99540.94;;;23.62;33.04
59240;BME280;45010;53.640;10.578;2023-12-29T10:28:40;99551.38;;;23.69;32.95
59240;BME280;45010;53.640;10.578;2023-12-29T10:31:40;99551.91;;;23.71;32.85
59240;BME280;45010;53.640;10.578;2023-12-29T10:34:41;99544.22;;;23.74;32.96
59240;BME280;45010;53.640;10.578;2023-12-29T10:37:42;99537.59;;;23.77;32.87
59240;BME280;45010;53.640;10.578;2023-12-29T10:40:42;99541.09;;;23.83;32.80
59240;BME280;45010;53.640;10.578;2023-12-29T10:43:46;99507.63;;;23.59;32.78
59240;BME280;45010;53.640;10.578;2023-12-29T10:46:55;99490.84;;;23.54;32.44
59240;BME280;45010;53.640;10.578;2023-12-29T10:49:58;99536.91;;;23.92;32.71
59240;BME280;45010;53.640;10.578;2023-12-29T10:53:12;99551.56;;;23.95;32.26
59240;BME280;45010;53.640;10.578;2023-12-29T10:56:18;99538.19;;;23.84;32.26
59240;BME280;45010;53.640;10.578;2023-12-29T10:59:22;99551.84;;;23.93;32.55
59240;BME280;45010;53.640;10.578;2023-12-29T11:02:22;99557.19;;;23.98;32.37
59240;BME280;45010;53.640;10.578;2023-12-29T11:05:25;99549.72;;;23.95;32.49
59240;BME280;45010;53.640;10.578;2023-12-29T11:08:26;99541.19;;;23.93;32.50
59240;BME280;45010;53.640;10.578;2023-12-29T11:11:26;99568.94;;;24.02;32.35
59240;BME280;45010;53.640;10.578;2023-12-29T11:14:27;99557.19;;;23.98;32.20
59240;BME280;45010;53.640;10.578;2023-12-29T11:17:32;99561.47;;;24.04;32.24
59240;BME280;45010;53.640;10.578;2023-12-29T11:20:35;99546.53;;;23.98;32.23
59240;BME280;45010;53.640;10.578;2023-12-29T11:23:36;99548.13;;;23.94;32.13
59240;BME280;45010;53.640;10.578;2023-12-29T11:26:37;99557.75;;;24.00;32.12
59240;BME280;45010;53.640;10.578;2023-12-29T11:29:40;99547.88;;;24.01;32.17
59240;BME280;45010;53.640;10.578;2023-12-29T11:32:51;99536.16;;;23.97;32.51
59240;BME280;45010;53.640;10.578;2023-12-29T11:36:12;99531.91;;;24.01;32.59
59240;BME280;45010;53.640;10.578;2023-12-29T11:42:51;99541.25;;;24.03;32.58
59240;BME280;45010;53.640;10.578;2023-12-29T11:45:53;99525.25;;;24.03;32.38
59240;BME280;45010;53.640;10.578;2023-12-29T11:48:57;99537.81;;;24.08;32.55
59240;BME280;45010;53.640;10.578;2023-12-29T11:51:58;99529.59;;;24.10;32.58
59240;BME280;45010;53.640;10.578;2023-12-29T11:55:12;99535.47;;;24.12;32.44
59240;BME280;45010;53.640;10.578;2023-12-29T11:58:24;99515.22;;;24.11;32.63
59240;BME280;45010;53.640;10.578;2023-12-29T12:01:33;99507.78;;;24.13;32.71
59240;BME280;45010;53.640;10.578;2023-12-29T12:04:45;99506.19;;;24.17;32.62
59240;BME280;45010;53.640;10.578;2023-12-29T12:10:46;99517.94;;;24.21;32.50
59240;BME280;45010;53.640;10.578;2023-12-29T12:13:46;99503.28;;;24.18;32.57
59240;BME280;45010;53.640;10.578;2023-12-29T12:16:50;99505.72;;;24.25;32.29
59240;BME280;45010;53.640;10.578;2023-12-29T12:19:56;99505.47;;;24.27;32.29
59240;BME280;45010;53.640;10.578;2023-12-29T12:26:10;99495.34;;;24.29;32.24
59240;BME280;45010;53.640;10.578;2023-12-29T12:29:13;99490.81;;;24.29;32.17
59240;BME280;45010;53.640;10.578;2023-12-29T12:32:16;99486.00;;;24.26;32.03
59240;BME280;45010;53.640;10.578;2023-12-29T12:35:16;99491.88;;;24.28;32.08
59240;BME280;45010;53.640;10.578;2023-12-29T12:38:17;99496.69;;;24.31;32.24
59240;BME280;45010;53.640;10.578;2023-12-29T12:41:22;99483.38;;;24.31;32.26
59240;BME280;45010;53.640;10.578;2023-12-29T12:44:23;99497.22;;;24.34;32.30
59240;BME280;45010;53.640;10.578;2023-12-29T12:47:37;99496.44;;;24.33;32.38
59240;BME280;45010;53.640;10.578;2023-12-29T12:50:43;99492.94;;;24.27;32.10
59240;BME280;45010;53.640;10.578;2023-12-29T12:53:44;99496.72;;;24.37;32.06
59240;BME280;45010;53.640;10.578;2023-12-29T12:56:44;99469.19;;;24.26;32.41
59240;BME280;45010;53.640;10.578;2023-12-29T12:59:45;99467.88;;;24.28;32.14
59240;BME280;45010;53.640;10.578;2023-12-29T13:02:46;99491.91;;;24.39;32.25
59240;BME280;45010;53.640;10.578;2023-12-29T13:05:46;99481.78;;;24.41;32.23
59240;BME280;45010;53.640;10.578;2023-12-29T13:08:51;99481.78;;;24.41;32.16
59240;BME280;45010;53.640;10.578;2023-12-29T13:12:07;99471.09;;;24.30;32.17
59240;BME280;45010;53.640;10.578;2023-12-29T13:15:08;99485.53;;;24.40;32.04
59240;BME280;45010;53.640;10.578;2023-12-29T13:18:08;99483.91;;;24.39;32.12
59240;BME280;45010;53.640;10.578;2023-12-29T13:21:09;99474.84;;;24.40;32.57
59240;BME280;45010;53.640;10.578;2023-12-29T13:24:10;99471.13;;;24.41;32.27
59240;BME280;45010;53.640;10.578;2023-12-29T13:27:10;99470.88;;;24.42;32.38
59240;BME280;45010;53.640;10.578;2023-12-29T13:30:12;99464.47;;;24.43;32.17
59240;BME280;45010;53.640;10.578;2023-12-29T13:33:57;99471.13;;;24.41;32.13
59240;BME280;45010;53.640;10.578;2023-12-29T13:37:12;99490.63;;;24.47;32.20
59240;BME280;45010;53.640;10.578;2023-12-29T13:40:40;99469.03;;;24.48;32.02
59240;BME280;45010;53.640;10.578;2023-12-29T13:43:43;99478.63;;;24.49;31.99
59240;BME280;45010;53.640;10.578;2023-12-29T13:46:46;99487.16;;;24.51;31.58
59240;BME280;45010;53.640;10.578;2023-12-29T13:49:47;99471.44;;;24.50;31.64
59240;BME280;45010;53.640;10.578;2023-12-29T13:52:49;99484.50;;;24.51;31.89
59240;BME280;45010;53.640;10.578;2023-12-29T13:55:50;99499.44;;;24.52;32.08
59240;BME280;45010;53.640;10.578;2023-12-29T13:58:53;99483.97;;;24.49;32.23
59240;BME280;45010;53.640;10.578;2023-12-29T14:01:54;99509.31;;;24.52;32.31
59240;BME280;45010;53.640;10.578;2023-12-29T14:05:11;99508.50;;;24.51;32.24
59240;BME280;45010;53.640;10.578;2023-12-29T14:08:33;99530.13;;;24.60;32.11
59240;BME280;45010;53.640;10.578;2023-12-29T14:11:36;99532.78;;;24.60;31.91
59240;BME280;45010;53.640;10.578;2023-12-29T14:14:37;99528.25;;;24.61;32.10
59240;BME280;45010;53.640;10.578;2023-12-29T14:17:38;99527.97;;;24.62;31.96
59240;BME280;45010;53.640;10.578;2023-12-29T14:20:39;99525.03;;;24.58;32.18
59240;BME280;45010;53.640;10.578;2023-12-29T14:23:42;99533.06;;;24.64;32.13
59240;BME280;45010;53.640;10.578;2023-12-29T14:29:52;99525.63;;;24.66;31.89
59240;BME280;45010;53.640;10.578;2023-12-29T14:32:52;99532.56;;;24.67;32.00
59240;BME280;45010;53.640;10.578;2023-12-29T14:35:53;99531.47;;;24.63;31.89
59240;BME280;45010;53.640;10.578;2023-12-29T14:38:53;99528.00;;;24.67;31.89
59240;BME280;45010;53.640;10.578;2023-12-29T14:41:53;99525.63;;;24.66;31.76
59240;BME280;45010;53.640;10.578;2023-12-29T14:44:54;99511.44;;;24.60;32.08
59240;BME280;45010;53.640;10.578;2023-12-29T14:47:54;99525.63;;;24.66;31.87
59240;BME280;45010;53.640;10.578;2023-12-29T14:50:54;99529.31;;;24.65;31.98
59240;BME280;45010;53.640;10.578;2023-12-29T14:53:55;99549.31;;;24.62;32.02
59240;BME280;45010;53.640;10.578;2023-12-29T14:56:55;99543.44;;;24.60;31.79
59240;BME280;45010;53.640;10.578;2023-12-29T14:59:56;99535.16;;;24.56;31.81
59240;BME280;45010;53.640;10.578;2023-12-29T15:02:56;99539.97;;;24.54;31.81
59240;BME280;45010;53.640;10.578;2023-12-29T15:05:57;99541.28;;;24.52;31.83
59240;BME280;45010;53.640;10.578;2023-12-29T15:08:57;99545.28;;;24.49;31.84
59240;BME280;45010;53.640;10.578;2023-12-29T15:11:58;99530.25;;;24.33;31.84
59240;BME280;45010;53.640;10.578;2023-12-29T15:14:58;99547.91;;;24.44;32.14
59240;BME280;45010;53.640;10.578;2023-12-29T15:17:59;99560.41;;;24.43;32.20
59240;BME280;45010;53.640;10.578;2023-12-29T15:21:00;99539.31;;;24.31;32.49
59240;BME280;45010;53.640;10.578;2023-12-29T15:24:01;99547.38;;;24.42;32.47
59240;BME280;45010;53.640;10.578;2023-12-29T15:27:02;99543.34;;;24.39;32.39
59240;BME280;45010;53.640;10.578;2023-12-29T15:30:03;99535.63;;;24.38;32.46
59240;BME280;45010;53.640;10.578;2023-12-29T15:33:03;99543.06;;;24.36;32.41
59240;BME280;45010;53.640;10.578;2023-12-29T15:36:04;99490.19;;;24.12;32.25
59240;BME280;45010;53.640;10.578;2023-12-29T15:39:04;99522.81;;;24.40;32.07
59240;BME280;45010;53.640;10.578;2023-12-29T15:42:05;99530.81;;;24.40;32.05
59240;BME280;45010;53.640;10.578;2023-12-29T15:45:05;99524.44;;;24.41;32.21
59240;BME280;45010;53.640;10.578;2023-12-29T15:48:06;99520.72;;;24.42;32.09
59240;BME280;45010;53.640;10.578;2023-12-29T15:51:07;99491.34;;;24.31;31.89
59240;BME280;45010;53.640;10.578;2023-12-29T15:54:07;99523.91;;;24.44;32.05
59240;BME280;45010;53.640;10.578;2023-12-29T15:57:07;99516.94;;;24.33;32.11
59240;BME280;45010;53.640;10.578;2023-12-29T16:00:08;99530.84;;;24.45;32.26
59240;BME280;45010;53.640;10.578;2023-12-29T16:03:10;99532.16;;;24.42;32.01
59240;BME280;45010;53.640;10.578;2023-12-29T16:06:21;99542.59;;;24.49;32.06
59240;BME280;45010;53.640;10.578;2023-12-29T16:09:21;99546.34;;;24.48;32.05